sensor_id;sensor_type;location;lat;lon;timestamp;pressure;altitude;pressure_sealevel;temperature;humidity
10518;BME280;5307;42.548;22.968;2023-12-22T00:01:59;92442.63;;;-0.25;100.00
10518;BME280;5307;42.548;22.968;2023-12-22T00:04:27;92439.03;;;-0.19;100.00
10518;BME280;5307;42.548;22.968;2023-12-22T00:06:54;92440.00;;;-0.09;100.00
10518;BME280;5307;42.548;22.968;2023-12-22T00:09:20;92437.94;;;-0.21;100.00
10518;BME280;5307;42.548;22.968;2023-12-22T00:11:47;92434.00;;;-0.17;100.00
10518;BME280;5307;42.548;22.968;2023-12-22T00:14:14;92433.06;;;-0.07;100.00
10518;BME280;5307;42.548;22.968;2023-12-22T00:16:41;92419.44;;;-0.16;100.00
10518;BME280;5307;42.548;22.968;2023-12-22T00:19:07;92412.16;;;-0.35;100.00
10518;BME280;5307;42.548;22.968;2023-12-22T00:21:36;92394.47;;;-0.13;100.00
10518;BME280;5307;42.548;22.968;2023-12-22T00:24:03;92390.97;;;-0.10;100.00
10518;BME280;5307;42.548;22.968;2023-12-22T00:26:29;92381.19;;;0.00;100.00
10518;BME280;5307;42.548;22.968;2023-12-22T00:28:56;92370.59;;;-0.07;100.00
10518;BME280;5307;42.548;22.968;2023-12-22T00:31:23;92377.34;;;0.17;100.00
10518;BME280;5307;42.548;22.968;2023-12-22T00:33:50;92381.47;;;0.22;100.00
10518;BME280;5307;42.548;22.968;2023-12-22T00:36:17;92385.34;;;0.37;100.00
10518;BME280;5307;42.548;22.968;2023-12-22T00:38:50;92373.28;;;0.45;100.00
10518;BME280;5307;42.548;22.968;2023-12-22T00:41:16;92377.47;;;0.46;100.00
10518;BME280;5307;42.548;22.968;2023-12-22T00:43:43;92379.81;;;0.44;100.00
10518;BME280;5307;42.548;22.968;2023-12-22T00:46:10;92373.19;;;0.33;100.00
10518;BME280;5307;42.548;22.968;2023-12-22T00:48:37;92370.22;;;0.27;100.00
10518;BME280;5307;42.548;22.968;2023-12-22T00:51:05;92374.34;;;0.32;100.00
10518;BME280;5307;42.548;22.968;2023-12-22T00:53:32;92374.25;;;0.35;100.00
10518;BME280;5307;42.548;22.968;2023-12-22T00:56:01;92384.31;;;0.15;100.00
10518;BME280;5307;42.548;22.968;2023-12-22T00:58:28;92381.19;;;-0.20;100.00
10518;BME280;5307;42.548;22.968;2023-12-22T01:00:55;92376.88;;;-0.14;100.00
10518;BME280;5307;42.548;22.968;2023-12-22T01:03:22;92376.94;;;-0.17;100.00
10518;BME280;5307;42.548;22.968;2023-12-22T01:05:49;92375.00;;;-0.17;100.00
10518;BME280;5307;42.548;22.968;2023-12-22T01:08:16;92376.91;;;0.03;100.00
10518;BME280;5307;42.548;22.968;2023-12-22T01:10:42;92365.25;;;0.09;100.00
10518;BME280;5307;42.548;22.968;2023-12-22T01:13:10;92368.59;;;-0.03;100.00
10518;BME280;5307;42.548;22.968;2023-12-22T01:15:37;92367.81;;;-0.04;100.00
10518;BME280;5307;42.548;22.968;2023-12-22T01:18:04;92357.63;;;0.08;100.00
10518;BME280;5307;42.548;22.968;2023-12-22T01:20:31;92364.50;;;0.09;100.00
10518;BME280;5307;42.548;22.968;2023-12-22T01:22:58;92365.13;;;0.16;100.00
10518;BME280;5307;42.548;22.968;2023-12-22T01:25:25;92362.41;;;0.00;100.00
10518;BME280;5307;42.548;22.968;2023-12-22T01:27:51;92364.31;;;-0.01;100.00
10518;BME280;5307;42.548;22.968;2023-12-22T01:30:20;92355.59;;;0.12;100.00
10518;BME280;5307;42.548;22.968;2023-12-22T01:32:47;92350.53;;;0.17;100.00
10518;BME280;5307;42.548;22.968;2023-12-22T01:35:13;92345.66;;;0.28;100.00
10518;BME280;5307;42.548;22.968;2023-12-22T01:37:40;92344.88;;;0.28;100.00
10518;BME280;5307;42.548;22.968;2023-12-22T01:40:08;92340.28;;;0.28;100.00
10518;BME280;5307;42.548;22.968;2023-12-22T01:42:35;92335.84;;;0.22;100.00
10518;BME280;5307;42.548;22.968;2023-12-22T01:45:02;92332.63;;;0.27;100.00
10518;BME280;5307;42.548;22.968;2023-12-22T01:47:30;92332.41;;;0.21;100.00
10518;BME280;5307;42.548;22.968;2023-12-22T01:49:57;92336.69;;;0.19;100.00
10518;BME280;5307;42.548;22.968;2023-12-22T01:52:24;92341.44;;;0.11;100.00
10518;BME280;5307;42.548;22.968;2023-12-22T01:54:52;92341.72;;;0.17;100.00
10518;BME280;5307;42.548;22.968;2023-12-22T01:57:20;92342.03;;;0.19;100.00
10518;BME280;5307;42.548;22.968;2023-12-22T01:59:48;92347.75;;;0.21;100.00
10518;BME280;5307;42.548;22.968;2023-12-22T02:02:15;92344.06;;;0.15;100.00
10518;BME280;5307;42.548;22.968;2023-12-22T02:04:44;92334.75;;;0.19;100.00
10518;BME280;5307;42.548;22.968;2023-12-22T02:07:12;92338.53;;;0.22;100.00
10518;BME280;5307;42.548;22.968;2023-12-22T02:09:39;92333.66;;;0.33;100.00
10518;BME280;5307;42.548;22.968;2023-12-22T02:12:06;92340.53;;;0.34;100.00
10518;BME280;5307;42.548;22.968;2023-12-22T02:14:33;92336.25;;;0.37;100.00
10518;BME280;5307;42.548;22.968;2023-12-22T02:17:05;92347.25;;;0.26;100.00
10518;BME280;5307;42.548;22.968;2023-12-22T02:19:41;92335.16;;;0.18;100.00
10518;BME280;5307;42.548;22.968;2023-12-22T02:22:11;92330.81;;;0.24;100.00
10518;BME280;5307;42.548;22.968;2023-12-22T02:24:45;92333.34;;;0.31;100.00
10518;BME280;5307;42.548;22.968;2023-12-22T02:27:23;92317.97;;;0.32;100.00
10518;BME280;5307;42.548;22.968;2023-12-22T02:29:55;92313.84;;;0.27;100.00
10518;BME280;5307;42.548;22.968;2023-12-22T02:32:31;92316.13;;;0.28;100.00
10518;BME280;5307;42.548;22.968;2023-12-22T02:35:03;92306.22;;;0.42;100.00
10518;BME280;5307;42.548;22.968;2023-12-22T02:37:32;92304.78;;;0.37;100.00
10518;BME280;5307;42.548;22.968;2023-12-22T02:40:03;92301.53;;;0.46;100.00
10518;BME280;5307;42.548;22.968;2023-12-22T02:42:30;92290.63;;;0.37;100.00
10518;BME280;5307;42.548;22.968;2023-12-22T02:44:58;92284.06;;;0.54;100.00
10518;BME280;5307;42.548;22.968;2023-12-22T02:47:25;92291.84;;;0.65;100.00
10518;BME280;5307;42.548;22.968;2023-12-22T02:49:53;92285.28;;;0.66;100.00
10518;BME280;5307;42.548;22.968;2023-12-22T02:52:20;92287.00;;;0.59;100.00
10518;BME280;5307;42.548;22.968;2023-12-22T02:54:47;92283.25;;;0.70;100.00
10518;BME280;5307;42.548;22.968;2023-12-22T02:57:15;92289.31;;;0.74;100.00
10518;BME280;5307;42.548;22.968;2023-12-22T02:59:42;92282.50;;;0.69;100.00
10518;BME280;5307;42.548;22.968;2023-12-22T03:02:08;92283.75;;;0.81;100.00
10518;BME280;5307;42.548;22.968;2023-12-22T03:04:35;92271.69;;;0.73;100.00
10518;BME280;5307;42.548;22.968;2023-12-22T03:07:02;92273.22;;;1.03;100.00
10518;BME280;5307;42.548;22.968;2023-12-22T03:09:29;92270.63;;;1.12;100.00
10518;BME280;5307;42.548;22.968;2023-12-22T03:11:57;92272.25;;;1.09;100.00
10518;BME280;5307;42.548;22.968;2023-12-22T03:14:28;92272.25;;;1.09;100.00
10518;BME280;5307;42.548;22.968;2023-12-22T03:16:55;92267.44;;;1.17;100.00
10518;BME280;5307;42.548;22.968;2023-12-22T03:19:22;92255.47;;;1.05;100.00
10518;BME280;5307;42.548;22.968;2023-12-22T03:21:49;92265.50;;;1.17;100.00
10518;BME280;5307;42.548;22.968;2023-12-22T03:24:16;92257.00;;;1.19;100.00
10518;BME280;5307;42.548;22.968;2023-12-22T03:26:44;92266.47;;;1.24;100.00
10518;BME280;5307;42.548;22.968;2023-12-22T03:29:10;92260.34;;;1.23;100.00
10518;BME280;5307;42.548;22.968;2023-12-22T03:31:39;92258.16;;;1.05;100.00
10518;BME280;5307;42.548;22.968;2023-12-22T03:34:05;92266.38;;;1.14;100.00
10518;BME280;5307;42.548;22.968;2023-12-22T03:36:33;92251.22;;;0.92;100.00
10518;BME280;5307;42.548;22.968;2023-12-22T03:39:01;92260.19;;;1.01;100.00
10518;BME280;5307;42.548;22.968;2023-12-22T03:41:28;92250.19;;;1.02;100.00
10518;BME280;5307;42.548;22.968;2023-12-22T03:43:55;92246.84;;;0.98;100.00
10518;BME280;5307;42.548;22.968;2023-12-22T03:46:21;92246.78;;;1.14;100.00
10518;BME280;5307;42.548;22.968;2023-12-22T03:48:50;92258.31;;;1.14;100.00
10518;BME280;5307;42.548;22.968;2023-12-22T03:51:17;92249.41;;;1.30;100.00
10518;BME280;5307;42.548;22.968;2023-12-22T03:53:43;92254.53;;;1.25;100.00
10518;BME280;5307;42.548;22.968;2023-12-22T03:56:10;92249.59;;;1.23;100.00
10518;BME280;5307;42.548;22.968;2023-12-22T03:58:37;92259.88;;;1.12;100.00
10518;BME280;5307;42.548;22.968;2023-12-22T04:01:04;92257.22;;;1.25;100.00
10518;BME280;5307;42.548;22.968;2023-12-22T04:03:33;92253.34;;;1.26;100.00
10518;BME280;5307;42.548;22.968;2023-12-22T04:06:03;92250.78;;;1.22;100.00
10518;BME280;5307;42.548;22.968;2023-12-22T04:08:30;92256.03;;;1.13;100.00
10518;BME280;5307;42.548;22.968;2023-12-22T04:10:56;92253.34;;;1.26;100.00
10518;BME280;5307;42.548;22.968;2023-12-22T04:13:23;92259.16;;;1.24;100.00
10518;BME280;5307;42.548;22.968;2023-12-22T04:15:50;92254.31;;;1.19;100.00
10518;BME280;5307;42.548;22.968;2023-12-22T04:18:17;92262.94;;;1.14;100.00
10518;BME280;5307;42.548;22.968;2023-12-22T04:20:44;92265.06;;;1.19;100.00
10518;BME280;5307;42.548;22.968;2023-12-22T04:23:12;92259.09;;;1.28;100.00
10518;BME280;5307;42.548;22.968;2023-12-22T04:25:39;92256.47;;;1.24;100.00
10518;BME280;5307;42.548;22.968;2023-12-22T04:28:05;92254.88;;;1.27;100.00
10518;BME280;5307;42.548;22.968;2023-12-22T04:30:32;92247.16;;;1.29;100.00
10518;BME280;5307;42.548;22.968;2023-12-22T04:32:59;92249.63;;;1.36;100.00
10518;BME280;5307;42.548;22.968;2023-12-22T04:35:26;92257.03;;;1.32;100.00
10518;BME280;5307;42.548;22.968;2023-12-22T04:37:53;92257.91;;;1.29;100.00
10518;BME280;5307;42.548;22.968;2023-12-22T04:40:21;92259.31;;;1.46;100.00
10518;BME280;5307;42.548;22.968;2023-12-22T04:42:48;92252.00;;;1.46;100.00
10518;BME280;5307;42.548;22.968;2023-12-22T04:45:15;92256.00;;;1.42;100.00
10518;BME280;5307;42.548;22.968;2023-12-22T04:47:42;92256.59;;;1.33;100.00
10518;BME280;5307;42.548;22.968;2023-12-22T04:50:09;92261.78;;;1.28;100.00
10518;BME280;5307;42.548;22.968;2023-12-22T04:52:42;92253.69;;;1.40;100.00
10518;BME280;5307;42.548;22.968;2023-12-22T04:55:09;92255.00;;;1.36;100.00
10518;BME280;5307;42.548;22.968;2023-12-22T04:57:37;92254.03;;;1.30;100.00
10518;BME280;5307;42.548;22.968;2023-12-22T05:00:05;92249.28;;;1.34;100.00
10518;BME280;5307;42.548;22.968;2023-12-22T05:02:32;92262.63;;;1.37;100.00
10518;BME280;5307;42.548;22.968;2023-12-22T05:04:59;92264.13;;;1.38;100.00
10518;BME280;5307;42.548;22.968;2023-12-22T05:07:27;92266.06;;;1.38;100.00
10518;BME280;5307;42.548;22.968;2023-12-22T05:09:54;92259.50;;;1.39;100.00
10518;BME280;5307;42.548;22.968;2023-12-22T05:12:21;92266.81;;;1.26;100.00
10518;BME280;5307;42.548;22.968;2023-12-22T05:14:49;92259.09;;;1.53;100.00
10518;BME280;5307;42.548;22.968;2023-12-22T05:17:16;92266.34;;;1.56;100.00
10518;BME280;5307;42.548;22.968;2023-12-22T05:19:43;92261.16;;;1.49;100.00
10518;BME280;5307;42.548;22.968;2023-12-22T05:22:11;92262.22;;;1.52;100.00
10518;BME280;5307;42.548;22.968;2023-12-22T05:24:38;92255.34;;;1.51;100.00
10518;BME280;5307;42.548;22.968;2023-12-22T05:27:05;92246.41;;;1.41;100.00
10518;BME280;5307;42.548;22.968;2023-12-22T05:29:32;92248.31;;;1.40;100.00
10518;BME280;5307;42.548;22.968;2023-12-22T05:32:00;92244.25;;;1.48;100.00
10518;BME280;5307;42.548;22.968;2023-12-22T05:34:26;92250.19;;;1.56;100.00
10518;BME280;5307;42.548;22.968;2023-12-22T05:36:53;92254.81;;;1.94;100.00
10518;BME280;5307;42.548;22.968;2023-12-22T05:39:20;92235.31;;;2.15;100.00
10518;BME280;5307;42.548;22.968;2023-12-22T05:41:47;92240.13;;;2.33;100.00
10518;BME280;5307;42.548;22.968;2023-12-22T05:44:13;92230.88;;;2.34;100.00
10518;BME280;5307;42.548;22.968;2023-12-22T05:46:41;92234.94;;;2.38;100.00
10518;BME280;5307;42.548;22.968;2023-12-22T05:49:09;92228.41;;;2.40;100.00
10518;BME280;5307;42.548;22.968;2023-12-22T05:51:37;92234.94;;;2.38;100.00
10518;BME280;5307;42.548;22.968;2023-12-22T05:54:04;92235.91;;;2.45;100.00
10518;BME280;5307;42.548;22.968;2023-12-22T05:56:31;92235.16;;;2.44;100.00
10518;BME280;5307;42.548;22.968;2023-12-22T05:58:59;92246.00;;;2.53;100.00
10518;BME280;5307;42.548;22.968;2023-12-22T06:01:26;92245.03;;;2.60;100.00
10518;BME280;5307;42.548;22.968;2023-12-22T06:03:52;92243.66;;;2.55;100.00
10518;BME280;5307;42.548;22.968;2023-12-22T06:06:21;92256.69;;;2.57;100.00
10518;BME280;5307;42.548;22.968;2023-12-22T06:08:48;92254.63;;;2.61;100.00
10518;BME280;5307;42.548;22.968;2023-12-22T06:11:15;92254.63;;;2.61;100.00
10518;BME280;5307;42.548;22.968;2023-12-22T06:13:41;92248.25;;;2.67;100.00
10518;BME280;5307;42.548;22.968;2023-12-22T06:16:11;92244.47;;;2.65;100.00
10518;BME280;5307;42.548;22.968;2023-12-22T06:18:38;92248.25;;;2.67;100.00
10518;BME280;5307;42.548;22.968;2023-12-22T06:21:05;92249.00;;;2.68;100.00
10518;BME280;5307;42.548;22.968;2023-12-22T06:23:33;92257.09;;;2.68;100.00
10518;BME280;5307;42.548;22.968;2023-12-22T06:26:00;92255.34;;;2.74;100.00
10518;BME280;5307;42.548;22.968;2023-12-22T06:28:27;92258.59;;;2.69;100.00
10518;BME280;5307;42.548;22.968;2023-12-22T06:30:54;92254.56;;;2.74;100.00
10518;BME280;5307;42.548;22.968;2023-12-22T06:33:21;92257.84;;;2.68;100.00
10518;BME280;5307;42.548;22.968;2023-12-22T06:35:48;92247.81;;;2.69;100.00
10518;BME280;5307;42.548;22.968;2023-12-22T06:38:19;92256.97;;;2.72;100.00
10518;BME280;5307;42.548;22.968;2023-12-22T06:40:47;92257.41;;;2.70;100.00
10518;BME280;5307;42.548;22.968;2023-12-22T06:43:14;92257.91;;;2.78;100.00
10518;BME280;5307;42.548;22.968;2023-12-22T06:45:41;92255.66;;;2.76;100.00
10518;BME280;5307;42.548;22.968;2023-12-22T06:48:07;92259.84;;;2.77;100.00
10518;BME280;5307;42.548;22.968;2023-12-22T06:50:35;92265.63;;;2.88;100.00
10518;BME280;5307;42.548;22.968;2023-12-22T06:53:05;92268.91;;;2.83;100.00
10518;BME280;5307;42.548;22.968;2023-12-22T06:55:33;92270.50;;;2.81;100.00
10518;BME280;5307;42.548;22.968;2023-12-22T06:58:01;92269.34;;;2.82;100.00
10518;BME280;5307;42.548;22.968;2023-12-22T07:00:28;92263.16;;;2.81;100.00
10518;BME280;5307;42.548;22.968;2023-12-22T07:02:54;92268.69;;;2.78;100.00
10518;BME280;5307;42.548;22.968;2023-12-22T07:05:34;92258.97;;;2.80;100.00
10518;BME280;5307;42.548;22.968;2023-12-22T07:08:05;92265.31;;;2.86;100.00
10518;BME280;5307;42.548;22.968;2023-12-22T07:10:32;92251.97;;;2.83;100.00
10518;BME280;5307;42.548;22.968;2023-12-22T07:13:00;92271.16;;;2.85;100.00
10518;BME280;5307;42.548;22.968;2023-12-22T07:15:27;92276.22;;;2.83;100.00
10518;BME280;5307;42.548;22.968;2023-12-22T07:17:55;92277.59;;;2.87;100.00
10518;BME280;5307;42.548;22.968;2023-12-22T07:20:21;92275.97;;;2.90;100.00
10518;BME280;5307;42.548;22.968;2023-12-22T07:22:48;92278.22;;;2.91;100.00
10518;BME280;5307;42.548;22.968;2023-12-22T07:25:16;92288.38;;;2.87;100.00
10518;BME280;5307;42.548;22.968;2023-12-22T07:27:45;92289.84;;;3.01;100.00
10518;BME280;5307;42.548;22.968;2023-12-22T07:30:14;92290.41;;;2.96;100.00
10518;BME280;5307;42.548;22.968;2023-12-22T07:32:45;92294.63;;;2.97;100.00
10518;BME280;5307;42.548;22.968;2023-12-22T07:35:14;92291.78;;;3.01;100.00
10518;BME280;5307;42.548;22.968;2023-12-22T07:37:41;92294.94;;;2.99;100.00
10518;BME280;5307;42.548;22.968;2023-12-22T07:40:09;92288.66;;;3.02;100.00
10518;BME280;5307;42.548;22.968;2023-12-22T07:42:36;92282.75;;;2.94;100.00
10518;BME280;5307;42.548;22.968;2023-12-22T07:45:04;92287.28;;;2.97;100.00
10518;BME280;5307;42.548;22.968;2023-12-22T07:47:33;92283.72;;;3.01;100.00
10518;BME280;5307;42.548;22.968;2023-12-22T07:50:00;92295.13;;;3.05;100.00
10518;BME280;5307;42.548;22.968;2023-12-22T07:52:27;92295.13;;;3.05;100.00
10518;BME280;5307;42.548;22.968;2023-12-22T07:54:55;92299.63;;;3.08;100.00
10518;BME280;5307;42.548;22.968;2023-12-22T07:57:22;92302.31;;;3.08;100.00
10518;BME280;5307;42.548;22.968;2023-12-22T07:59:48;92305.53;;;3.15;100.00
10518;BME280;5307;42.548;22.968;2023-12-22T08:02:15;92313.00;;;3.11;100.00
10518;BME280;5307;42.548;22.968;2023-12-22T08:04:43;92317.66;;;3.11;100.00
10518;BME280;5307;42.548;22.968;2023-12-22T08:07:10;92322.41;;;3.07;100.00
10518;BME280;5307;42.548;22.968;2023-12-22T08:09:37;92319.16;;;3.12;100.00
10518;BME280;5307;42.548;22.968;2023-12-22T08:12:04;92327.69;;;3.10;100.00
10518;BME280;5307;42.548;22.968;2023-12-22T08:14:31;92326.28;;;3.06;100.00
10518;BME280;5307;42.548;22.968;2023-12-22T08:16:58;92319.25;;;3.08;100.00
10518;BME280;5307;42.548;22.968;2023-12-22T08:19:26;92329.81;;;3.15;100.00
10518;BME280;5307;42.548;22.968;2023-12-22T08:21:54;92324.88;;;3.14;100.00
10518;BME280;5307;42.548;22.968;2023-12-22T08:24:22;92337.59;;;3.13;100.00
10518;BME280;5307;42.548;22.968;2023-12-22T08:26:49;92334.34;;;3.18;100.00
10518;BME280;5307;42.548;22.968;2023-12-22T08:29:20;92344.69;;;3.20;100.00
10518;BME280;5307;42.548;22.968;2023-12-22T08:31:47;92345.00;;;3.22;100.00
10518;BME280;5307;42.548;22.968;2023-12-22T08:34:14;92346.44;;;3.14;100.00
10518;BME280;5307;42.548;22.968;2023-12-22T08:36:44;92334.22;;;3.22;100.00
10518;BME280;5307;42.548;22.968;2023-12-22T08:39:12;92331.94;;;3.20;100.00
10518;BME280;5307;42.548;22.968;2023-12-22T08:41:39;92334.53;;;3.24;100.00
10518;BME280;5307;42.548;22.968;2023-12-22T08:44:06;92332.47;;;3.28;100.00
10518;BME280;5307;42.548;22.968;2023-12-22T08:46:34;92322.47;;;3.38;100.00
10518;BME280;5307;42.548;22.968;2023-12-22T08:49:00;92322.31;;;3.32;100.00
10518;BME280;5307;42.548;22.968;2023-12-22T08:51:28;92324.94;;;3.45;100.00
10518;BME280;5307;42.548;22.968;2023-12-22T08:53:55;92331.97;;;3.42;100.00
10518;BME280;5307;42.548;22.968;2023-12-22T08:56:24;92326.63;;;3.51;100.00
10518;BME280;5307;42.548;22.968;2023-12-22T08:58:52;92327.06;;;3.50;100.00
10518;BME280;5307;42.548;22.968;2023-12-22T09:01:21;92325.38;;;3.43;100.00
10518;BME280;5307;42.548;22.968;2023-12-22T09:03:48;92329.31;;;3.51;100.00
10518;BME280;5307;42.548;22.968;2023-12-22T09:06:15;92332.84;;;3.61;100.00
10518;BME280;5307;42.548;22.968;2023-12-22T09:08:42;92341.00;;;3.70;100.00
10518;BME280;5307;42.548;22.968;2023-12-22T09:11:10;92336.09;;;3.78;100.00
10518;BME280;5307;42.548;22.968;2023-12-22T09:13:38;92331.66;;;3.84;100.00
10518;BME280;5307;42.548;22.968;2023-12-22T09:16:05;92331.59;;;3.75;100.00
10518;BME280;5307;42.548;22.968;2023-12-22T09:18:32;92326.69;;;3.82;100.00
10518;BME280;5307;42.548;22.968;2023-12-22T09:21:00;92329.13;;;3.90;100.00
10518;BME280;5307;42.548;22.968;2023-12-22T09:23:28;92335.13;;;3.94;100.00
10518;BME280;5307;42.548;22.968;2023-12-22T09:25:56;92345.38;;;3.99;100.00
10518;BME280;5307;42.548;22.968;2023-12-22T09:28:24;92331.56;;;3.97;100.00
10518;BME280;5307;42.548;22.968;2023-12-22T09:30:52;92335.47;;;3.96;100.00
10518;BME280;5307;42.548;22.968;2023-12-22T09:33:19;92334.06;;;3.91;100.00
10518;BME280;5307;42.548;22.968;2023-12-22T09:35:45;92337.66;;;3.88;100.00
10518;BME280;5307;42.548;22.968;2023-12-22T09:38:12;92325.16;;;4.03;100.00
10518;BME280;5307;42.548;22.968;2023-12-22T09:40:39;92332.78;;;3.96;100.00
10518;BME280;5307;42.548;22.968;2023-12-22T09:43:08;92313.72;;;3.99;100.00
10518;BME280;5307;42.548;22.968;2023-12-22T09:45:36;92317.19;;;4.00;100.00
10518;BME280;5307;42.548;22.968;2023-12-22T09:48:06;92323.50;;;4.06;100.00
10518;BME280;5307;42.548;22.968;2023-12-22T09:50:52;92323.38;;;4.09;100.00
10518;BME280;5307;42.548;22.968;2023-12-22T09:53:19;92312.84;;;4.02;100.00
10518;BME280;5307;42.548;22.968;2023-12-22T09:55:48;92312.97;;;3.99;100.00
10518;BME280;5307;42.548;22.968;2023-12-22T09:58:15;92315.09;;;4.04;100.00
10518;BME280;5307;42.548;22.968;2023-12-22T10:00:43;92319.00;;;4.03;100.00
10518;BME280;5307;42.548;22.968;2023-12-22T10:03:12;92321.88;;;4.08;100.00
10518;BME280;5307;42.548;22.968;2023-12-22T10:05:40;92321.91;;;4.17;100.00
10518;BME280;5307;42.548;22.968;2023-12-22T10:08:09;92322.00;;;4.05;100.00
10518;BME280;5307;42.548;22.968;2023-12-22T10:10:38;92308.50;;;4.05;100.00
10518;BME280;5307;42.548;22.968;2023-12-22T10:13:06;92332.56;;;4.12;100.00
10518;BME280;5307;42.548;22.968;2023-12-22T10:15:36;92326.41;;;4.11;100.00
10518;BME280;5307;42.548;22.968;2023-12-22T10:18:07;92324.44;;;4.12;100.00
10518;BME280;5307;42.548;22.968;2023-12-22T10:20:36;92317.84;;;4.13;100.00
10518;BME280;5307;42.548;22.968;2023-12-22T10:23:03;92327.00;;;4.15;100.00
10518;BME280;5307;42.548;22.968;2023-12-22T10:25:30;92306.75;;;4.11;100.00
10518;BME280;5307;42.548;22.968;2023-12-22T10:27:58;92307.78;;;4.13;100.00
10518;BME280;5307;42.548;22.968;2023-12-22T10:30:25;92305.09;;;4.13;100.00
10518;BME280;5307;42.548;22.968;2023-12-22T10:32:53;92300.88;;;4.12;100.00
10518;BME280;5307;42.548;22.968;2023-12-22T10:35:21;92286.34;;;4.19;100.00
10518;BME280;5307;42.548;22.968;2023-12-22T10:37:50;92269.44;;;4.28;100.00
10518;BME280;5307;42.548;22.968;2023-12-22T10:40:19;92274.97;;;4.24;100.00
10518;BME280;5307;42.548;22.968;2023-12-22T10:42:46;92280.03;;;4.13;100.00
10518;BME280;5307;42.548;22.968;2023-12-22T10:45:12;92285.91;;;4.21;100.00
10518;BME280;5307;42.548;22.968;2023-12-22T10:47:40;92285.94;;;4.30;100.00
10518;BME280;5307;42.548;22.968;2023-12-22T10:50:08;92284.59;;;4.34;100.00
10518;BME280;5307;42.548;22.968;2023-12-22T10:52:38;92270.31;;;4.25;100.00
10518;BME280;5307;42.548;22.968;2023-12-22T10:55:07;92267.63;;;4.25;100.00
10518;BME280;5307;42.548;22.968;2023-12-22T10:57:34;92268.53;;;4.31;100.00
10518;BME280;5307;42.548;22.968;2023-12-22T11:00:04;92258.91;;;4.30;100.00
10518;BME280;5307;42.548;22.968;2023-12-22T11:02:34;92263.13;;;4.31;100.00
10518;BME280;5307;42.548;22.968;2023-12-22T11:05:03;92255.91;;;4.28;100.00
10518;BME280;5307;42.548;22.968;2023-12-22T11:07:33;92261.66;;;4.39;100.00
10518;BME280;5307;42.548;22.968;2023-12-22T11:10:03;92261.78;;;4.26;100.00
10518;BME280;5307;42.548;22.968;2023-12-22T11:12:33;92247.81;;;4.28;100.00
10518;BME280;5307;42.548;22.968;2023-12-22T11:15:02;92242.56;;;4.33;100.00
10518;BME280;5307;42.548;22.968;2023-12-22T11:17:32;92242.72;;;4.30;100.00
10518;BME280;5307;42.548;22.968;2023-12-22T11:19:59;92240.72;;;4.21;100.00
10518;BME280;5307;42.548;22.968;2023-12-22T11:22:27;92233.56;;;4.27;100.00
10518;BME280;5307;42.548;22.968;2023-12-22T11:24:55;92242.44;;;4.46;100.00
10518;BME280;5307;42.548;22.968;2023-12-22T11:27:25;92245.28;;;4.42;100.00
10518;BME280;5307;42.548;22.968;2023-12-22T11:29:55;92236.44;;;4.42;100.00
10518;BME280;5307;42.548;22.968;2023-12-22T11:32:21;92242.75;;;4.39;100.00
10518;BME280;5307;42.548;22.968;2023-12-22T11:34:48;92255.50;;;4.38;100.00
10518;BME280;5307;42.548;22.968;2023-12-22T11:37:16;92254.75;;;4.38;100.00
10518;BME280;5307;42.548;22.968;2023-12-22T11:39:43;92269.75;;;4.39;100.00
10518;BME280;5307;42.548;22.968;2023-12-22T11:42:16;92257.41;;;4.29;100.00
10518;BME280;5307;42.548;22.968;2023-12-22T11:44:43;92266.16;;;4.42;100.00
10518;BME280;5307;42.548;22.968;2023-12-22T11:47:13;92275.47;;;4.41;100.00
10518;BME280;5307;42.548;22.968;2023-12-22T11:49:41;92287.19;;;4.38;100.00
10518;BME280;5307;42.548;22.968;2023-12-22T11:52:12;92298.28;;;4.40;100.00
10518;BME280;5307;42.548;22.968;2023-12-22T11:54:46;92302.91;;;4.30;100.00
10518;BME280;5307;42.548;22.968;2023-12-22T11:57:31;92310.59;;;4.41;100.00
10518;BME280;5307;42.548;22.968;2023-12-22T12:00:05;92305.75;;;4.36;100.00
10518;BME280;5307;42.548;22.968;2023-12-22T12:02:35;92287.19;;;4.47;100.00
10518;BME280;5307;42.548;22.968;2023-12-22T12:05:04;92288.38;;;4.46;100.00
10518;BME280;5307;42.548;22.968;2023-12-22T12:07:41;92290.94;;;4.40;100.00
10518;BME280;5307;42.548;22.968;2023-12-22T12:10:10;92300.69;;;4.38;100.00
10518;BME280;5307;42.548;22.968;2023-12-22T12:12:37;92307.59;;;4.39;100.00
10518;BME280;5307;42.548;22.968;2023-12-22T12:15:10;92305.47;;;4.34;100.00
10518;BME280;5307;42.548;22.968;2023-12-22T12:17:42;92312.25;;;4.47;100.00
10518;BME280;5307;42.548;22.968;2023-12-22T12:20:10;92304.91;;;4.48;100.00
10518;BME280;5307;42.548;22.968;2023-12-22T12:22:38;92296.34;;;4.50;100.00
10518;BME280;5307;42.548;22.968;2023-12-22T12:25:07;92301.75;;;4.50;100.00
10518;BME280;5307;42.548;22.968;2023-12-22T12:27:35;92285.06;;;4.42;100.00
10518;BME280;5307;42.548;22.968;2023-12-22T12:30:10;92287.34;;;4.43;100.00
10518;BME280;5307;42.548;22.968;2023-12-22T12:32:37;92294.53;;;4.37;100.00
10518;BME280;5307;42.548;22.968;2023-12-22T12:35:06;92278.88;;;4.32;100.00
10518;BME280;5307;42.548;22.968;2023-12-22T12:37:33;92264.78;;;4.28;100.00
10518;BME280;5307;42.548;22.968;2023-12-22T12:40:01;92242.41;;;4.28;100.00
10518;BME280;5307;42.548;22.968;2023-12-22T12:42:30;92247.41;;;4.38;100.00
10518;BME280;5307;42.548;22.968;2023-12-22T12:44:57;92233.84;;;4.29;100.00
10518;BME280;5307;42.548;22.968;2023-12-22T12:47:24;92236.09;;;4.31;100.00
10518;BME280;5307;42.548;22.968;2023-12-22T12:49:56;92237.59;;;4.32;100.00
10518;BME280;5307;42.548;22.968;2023-12-22T12:52:26;92263.13;;;4.31;100.00
10518;BME280;5307;42.548;22.968;2023-12-22T12:54:53;92268.81;;;4.33;100.00
10518;BME280;5307;42.548;22.968;2023-12-22T12:57:21;92269.88;;;4.26;100.00
10518;BME280;5307;42.548;22.968;2023-12-22T12:59:49;92271.41;;;4.36;100.00
10518;BME280;5307;42.548;22.968;2023-12-22T13:02:16;92284.13;;;4.27;100.00
10518;BME280;5307;42.548;22.968;2023-12-22T13:04:43;92287.13;;;4.29;100.00